Terminal Aerodrome Forecast
Issued by NWS

Home | Current Version | Previous Version | Text Only | Print | Product List | Glossary Off
Versions: 1 2 3 4 5 6 7 8 9 10 11 12 13 14

000
FTUS43 KTOP 171500 AAA
TAFFOE
TAF AMD
KFOE 171505Z 1715/1812 35011KT P6SM BKN018
     FM171700 02008KT P6SM VCSH BKN090
     FM180000 11005KT P6SM SKC=

USA.gov is the U.S. government's official web portal to all federal, state and local government web resources and services.